sensor_id;sensor_type;location;lat;lon;timestamp;temperature;humidity
24152;DHT22;12311;50.866;4.332;2023-12-20T00:01:00;7.00;99.90
24152;DHT22;12311;50.866;4.332;2023-12-20T00:03:26;6.90;99.90
24152;DHT22;12311;50.866;4.332;2023-12-20T00:05:52;6.90;99.90
24152;DHT22;12311;50.866;4.332;2023-12-20T00:08:17;6.80;99.90
24152;DHT22;12311;50.866;4.332;2023-12-20T00:10:44;6.90;99.90
24152;DHT22;12311;50.866;4.332;2023-12-20T00:13:10;6.90;99.90
24152;DHT22;12311;50.866;4.332;2023-12-20T00:15:35;6.80;99.90
24152;DHT22;12311;50.866;4.332;2023-12-20T00:18:01;6.80;99.90
24152;DHT22;12311;50.866;4.332;2023-12-20T00:20:27;6.80;99.90
24152;DHT22;12311;50.866;4.332;2023-12-20T00:22:57;6.90;99.90
24152;DHT22;12311;50.866;4.332;2023-12-20T00:25:23;6.70;99.90
24152;DHT22;12311;50.866;4.332;2023-12-20T00:27:49;6.70;99.90
24152;DHT22;12311;50.866;4.332;2023-12-20T00:30:15;6.60;99.90
24152;DHT22;12311;50.866;4.332;2023-12-20T00:32:41;6.50;99.90
24152;DHT22;12311;50.866;4.332;2023-12-20T00:35:15;6.50;99.90
24152;DHT22;12311;50.866;4.332;2023-12-20T00:37:42;6.60;99.90
24152;DHT22;12311;50.866;4.332;2023-12-20T00:40:08;6.50;99.90
24152;DHT22;12311;50.866;4.332;2023-12-20T00:42:34;6.60;99.90
24152;DHT22;12311;50.866;4.332;2023-12-20T00:45:00;6.60;99.90
24152;DHT22;12311;50.866;4.332;2023-12-20T00:47:26;6.60;99.90
24152;DHT22;12311;50.866;4.332;2023-12-20T00:49:52;6.50;99.90
24152;DHT22;12311;50.866;4.332;2023-12-20T00:52:18;6.60;99.90
24152;DHT22;12311;50.866;4.332;2023-12-20T00:54:44;6.60;99.90
24152;DHT22;12311;50.866;4.332;2023-12-20T00:57:10;6.50;99.90
24152;DHT22;12311;50.866;4.332;2023-12-20T00:59:35;6.50;99.90
24152;DHT22;12311;50.866;4.332;2023-12-20T01:02:01;6.50;99.90
24152;DHT22;12311;50.866;4.332;2023-12-20T01:04:27;6.50;99.90
24152;DHT22;12311;50.866;4.332;2023-12-20T01:06:53;6.40;99.90
24152;DHT22;12311;50.866;4.332;2023-12-20T01:09:19;6.40;99.90
24152;DHT22;12311;50.866;4.332;2023-12-20T01:11:45;6.40;99.90
24152;DHT22;12311;50.866;4.332;2023-12-20T01:14:14;6.40;99.90
24152;DHT22;12311;50.866;4.332;2023-12-20T01:16:39;6.40;99.90
24152;DHT22;12311;50.866;4.332;2023-12-20T01:19:05;6.40;99.90
24152;DHT22;12311;50.866;4.332;2023-12-20T01:21:31;6.40;99.90
24152;DHT22;12311;50.866;4.332;2023-12-20T01:23:56;6.50;99.90
24152;DHT22;12311;50.866;4.332;2023-12-20T01:26:22;6.50;99.90
24152;DHT22;12311;50.866;4.332;2023-12-20T01:28:48;6.40;99.90
24152;DHT22;12311;50.866;4.332;2023-12-20T01:31:13;6.40;99.90
24152;DHT22;12311;50.866;4.332;2023-12-20T01:33:39;6.40;99.90
24152;DHT22;12311;50.866;4.332;2023-12-20T01:36:05;6.30;99.90
24152;DHT22;12311;50.866;4.332;2023-12-20T01:38:30;6.40;99.90
24152;DHT22;12311;50.866;4.332;2023-12-20T01:40:56;6.40;99.90
24152;DHT22;12311;50.866;4.332;2023-12-20T01:43:22;6.40;99.90
24152;DHT22;12311;50.866;4.332;2023-12-20T01:45:47;6.40;99.90
24152;DHT22;12311;50.866;4.332;2023-12-20T01:48:15;6.40;99.90
24152;DHT22;12311;50.866;4.332;2023-12-20T01:50:41;6.50;99.90
24152;DHT22;12311;50.866;4.332;2023-12-20T01:53:10;6.50;99.90
24152;DHT22;12311;50.866;4.332;2023-12-20T01:55:39;6.40;99.90
24152;DHT22;12311;50.866;4.332;2023-12-20T01:58:07;6.40;99.90
24152;DHT22;12311;50.866;4.332;2023-12-20T02:00:33;6.50;99.90
24152;DHT22;12311;50.866;4.332;2023-12-20T02:03:01;6.50;99.90
24152;DHT22;12311;50.866;4.332;2023-12-20T02:05:28;6.30;99.90
24152;DHT22;12311;50.866;4.332;2023-12-20T02:07:54;6.40;99.90
24152;DHT22;12311;50.866;4.332;2023-12-20T02:10:20;6.30;99.90
24152;DHT22;12311;50.866;4.332;2023-12-20T02:12:46;6.30;99.90
24152;DHT22;12311;50.866;4.332;2023-12-20T02:15:12;6.20;99.90
24152;DHT22;12311;50.866;4.332;2023-12-20T02:17:38;6.20;99.90
24152;DHT22;12311;50.866;4.332;2023-12-20T02:20:05;6.20;99.90
24152;DHT22;12311;50.866;4.332;2023-12-20T02:22:31;6.20;99.90
24152;DHT22;12311;50.866;4.332;2023-12-20T02:24:57;6.30;99.90
24152;DHT22;12311;50.866;4.332;2023-12-20T02:27:23;6.40;99.90
24152;DHT22;12311;50.866;4.332;2023-12-20T02:29:50;6.30;99.90
24152;DHT22;12311;50.866;4.332;2023-12-20T02:32:17;6.40;99.90
24152;DHT22;12311;50.866;4.332;2023-12-20T02:34:43;6.30;99.90
24152;DHT22;12311;50.866;4.332;2023-12-20T02:37:09;6.30;99.90
24152;DHT22;12311;50.866;4.332;2023-12-20T02:39:34;6.40;99.90
24152;DHT22;12311;50.866;4.332;2023-12-20T02:42:00;6.40;99.90
24152;DHT22;12311;50.866;4.332;2023-12-20T02:44:26;6.30;99.90
24152;DHT22;12311;50.866;4.332;2023-12-20T02:46:53;6.40;99.90
24152;DHT22;12311;50.866;4.332;2023-12-20T02:49:19;6.50;99.90
24152;DHT22;12311;50.866;4.332;2023-12-20T02:51:45;6.40;99.90
24152;DHT22;12311;50.866;4.332;2023-12-20T02:54:11;6.40;99.90
24152;DHT22;12311;50.866;4.332;2023-12-20T02:56:37;6.40;99.90
24152;DHT22;12311;50.866;4.332;2023-12-20T02:59:03;6.40;99.90
24152;DHT22;12311;50.866;4.332;2023-12-20T03:01:31;6.40;99.90
24152;DHT22;12311;50.866;4.332;2023-12-20T03:03:57;6.40;99.90
24152;DHT22;12311;50.866;4.332;2023-12-20T03:06:22;6.40;99.90
24152;DHT22;12311;50.866;4.332;2023-12-20T03:08:48;6.50;99.90
24152;DHT22;12311;50.866;4.332;2023-12-20T03:11:14;6.50;99.90
24152;DHT22;12311;50.866;4.332;2023-12-20T03:13:39;6.50;99.90
24152;DHT22;12311;50.866;4.332;2023-12-20T03:16:12;6.60;99.90
24152;DHT22;12311;50.866;4.332;2023-12-20T03:18:38;6.70;99.90
24152;DHT22;12311;50.866;4.332;2023-12-20T03:21:05;6.70;99.90
24152;DHT22;12311;50.866;4.332;2023-12-20T03:23:30;6.80;99.90
24152;DHT22;12311;50.866;4.332;2023-12-20T03:25:58;6.80;99.90
24152;DHT22;12311;50.866;4.332;2023-12-20T03:28:23;6.80;99.90
24152;DHT22;12311;50.866;4.332;2023-12-20T03:30:49;6.80;99.90
24152;DHT22;12311;50.866;4.332;2023-12-20T03:33:15;6.80;99.90
24152;DHT22;12311;50.866;4.332;2023-12-20T03:35:41;6.80;99.90
24152;DHT22;12311;50.866;4.332;2023-12-20T03:38:08;7.00;99.90
24152;DHT22;12311;50.866;4.332;2023-12-20T03:40:33;6.90;99.90
24152;DHT22;12311;50.866;4.332;2023-12-20T03:42:59;7.00;99.90
24152;DHT22;12311;50.866;4.332;2023-12-20T03:45:25;6.80;99.90
24152;DHT22;12311;50.866;4.332;2023-12-20T03:47:50;6.70;99.90
24152;DHT22;12311;50.866;4.332;2023-12-20T03:50:22;6.70;99.90
24152;DHT22;12311;50.866;4.332;2023-12-20T03:52:47;6.70;99.90
24152;DHT22;12311;50.866;4.332;2023-12-20T03:55:13;6.80;99.90
24152;DHT22;12311;50.866;4.332;2023-12-20T03:57:38;6.80;99.90
24152;DHT22;12311;50.866;4.332;2023-12-20T04:00:05;6.80;99.90
24152;DHT22;12311;50.866;4.332;2023-12-20T04:02:38;6.80;99.90
24152;DHT22;12311;50.866;4.332;2023-12-20T04:05:05;6.80;99.90
24152;DHT22;12311;50.866;4.332;2023-12-20T04:07:31;6.80;99.90
24152;DHT22;12311;50.866;4.332;2023-12-20T04:09:57;6.90;99.90
24152;DHT22;12311;50.866;4.332;2023-12-20T04:12:23;6.90;99.90
24152;DHT22;12311;50.866;4.332;2023-12-20T04:14:48;6.80;99.90
24152;DHT22;12311;50.866;4.332;2023-12-20T04:17:15;6.80;99.90
24152;DHT22;12311;50.866;4.332;2023-12-20T04:19:42;6.60;99.90
24152;DHT22;12311;50.866;4.332;2023-12-20T04:22:08;6.70;99.90
24152;DHT22;12311;50.866;4.332;2023-12-20T04:24:34;6.60;99.90
24152;DHT22;12311;50.866;4.332;2023-12-20T04:27:00;6.70;99.90
24152;DHT22;12311;50.866;4.332;2023-12-20T04:29:25;6.60;99.90
24152;DHT22;12311;50.866;4.332;2023-12-20T04:31:51;6.60;99.90
24152;DHT22;12311;50.866;4.332;2023-12-20T04:34:17;6.60;99.90
24152;DHT22;12311;50.866;4.332;2023-12-20T04:36:43;6.60;99.90
24152;DHT22;12311;50.866;4.332;2023-12-20T04:39:11;6.70;99.90
24152;DHT22;12311;50.866;4.332;2023-12-20T04:41:37;6.70;99.90
24152;DHT22;12311;50.866;4.332;2023-12-20T04:44:03;6.70;99.90
24152;DHT22;12311;50.866;4.332;2023-12-20T04:46:28;6.70;99.90
24152;DHT22;12311;50.866;4.332;2023-12-20T04:48:54;6.80;99.90
24152;DHT22;12311;50.866;4.332;2023-12-20T04:51:20;6.70;99.90
24152;DHT22;12311;50.866;4.332;2023-12-20T04:53:46;6.90;99.90
24152;DHT22;12311;50.866;4.332;2023-12-20T04:56:12;6.80;99.90
24152;DHT22;12311;50.866;4.332;2023-12-20T04:58:37;6.70;99.90
24152;DHT22;12311;50.866;4.332;2023-12-20T05:01:05;6.60;99.90
24152;DHT22;12311;50.866;4.332;2023-12-20T05:03:31;6.60;99.90
24152;DHT22;12311;50.866;4.332;2023-12-20T05:05:56;6.60;99.90
24152;DHT22;12311;50.866;4.332;2023-12-20T05:08:22;6.60;99.90
24152;DHT22;12311;50.866;4.332;2023-12-20T05:10:48;6.60;99.90
24152;DHT22;12311;50.866;4.332;2023-12-20T05:13:13;6.60;99.90
24152;DHT22;12311;50.866;4.332;2023-12-20T05:15:39;6.60;99.90
24152;DHT22;12311;50.866;4.332;2023-12-20T05:18:05;6.60;99.90
24152;DHT22;12311;50.866;4.332;2023-12-20T05:20:30;6.60;99.90
24152;DHT22;12311;50.866;4.332;2023-12-20T05:22:56;6.50;99.90
24152;DHT22;12311;50.866;4.332;2023-12-20T05:25:22;6.40;99.90
24152;DHT22;12311;50.866;4.332;2023-12-20T05:27:48;6.40;99.90
24152;DHT22;12311;50.866;4.332;2023-12-20T05:30:13;6.30;99.90
24152;DHT22;12311;50.866;4.332;2023-12-20T05:32:39;6.20;99.90
24152;DHT22;12311;50.866;4.332;2023-12-20T05:35:05;6.30;99.90
24152;DHT22;12311;50.866;4.332;2023-12-20T05:37:31;6.20;99.90
24152;DHT22;12311;50.866;4.332;2023-12-20T05:39:57;6.10;99.90
24152;DHT22;12311;50.866;4.332;2023-12-20T05:42:22;6.10;99.90
24152;DHT22;12311;50.866;4.332;2023-12-20T05:44:48;6.10;99.90
24152;DHT22;12311;50.866;4.332;2023-12-20T05:47:14;6.10;99.90
24152;DHT22;12311;50.866;4.332;2023-12-20T05:49:39;6.00;99.90
24152;DHT22;12311;50.866;4.332;2023-12-20T05:52:05;5.90;99.90
24152;DHT22;12311;50.866;4.332;2023-12-20T05:54:31;5.80;99.90
24152;DHT22;12311;50.866;4.332;2023-12-20T05:56:57;5.80;99.90
24152;DHT22;12311;50.866;4.332;2023-12-20T05:59:22;5.80;99.90
24152;DHT22;12311;50.866;4.332;2023-12-20T06:01:48;5.80;99.90
24152;DHT22;12311;50.866;4.332;2023-12-20T06:04:14;5.80;99.90
24152;DHT22;12311;50.866;4.332;2023-12-20T06:06:43;5.80;99.90
24152;DHT22;12311;50.866;4.332;2023-12-20T06:09:09;5.90;99.90
24152;DHT22;12311;50.866;4.332;2023-12-20T06:11:35;5.90;99.90
24152;DHT22;12311;50.866;4.332;2023-12-20T06:14:00;5.90;99.90
24152;DHT22;12311;50.866;4.332;2023-12-20T06:16:26;6.00;99.90
24152;DHT22;12311;50.866;4.332;2023-12-20T06:18:52;6.10;99.90
24152;DHT22;12311;50.866;4.332;2023-12-20T06:21:18;6.10;99.90
24152;DHT22;12311;50.866;4.332;2023-12-20T06:23:43;6.10;99.90
24152;DHT22;12311;50.866;4.332;2023-12-20T06:26:09;6.10;99.90
24152;DHT22;12311;50.866;4.332;2023-12-20T06:28:35;6.20;99.90
24152;DHT22;12311;50.866;4.332;2023-12-20T06:31:00;6.20;99.90
24152;DHT22;12311;50.866;4.332;2023-12-20T06:33:26;6.30;99.90
24152;DHT22;12311;50.866;4.332;2023-12-20T06:35:52;6.20;99.90
24152;DHT22;12311;50.866;4.332;2023-12-20T06:38:18;6.20;99.90
24152;DHT22;12311;50.866;4.332;2023-12-20T06:40:44;6.20;99.90
24152;DHT22;12311;50.866;4.332;2023-12-20T06:43:11;6.10;99.90
24152;DHT22;12311;50.866;4.332;2023-12-20T06:45:37;6.10;99.90
24152;DHT22;12311;50.866;4.332;2023-12-20T06:48:03;6.10;99.90
24152;DHT22;12311;50.866;4.332;2023-12-20T06:50:29;6.00;99.90
24152;DHT22;12311;50.866;4.332;2023-12-20T06:52:54;5.90;99.90
24152;DHT22;12311;50.866;4.332;2023-12-20T06:55:20;5.90;99.90
24152;DHT22;12311;50.866;4.332;2023-12-20T06:57:46;5.80;99.90
24152;DHT22;12311;50.866;4.332;2023-12-20T07:00:12;5.80;99.90
24152;DHT22;12311;50.866;4.332;2023-12-20T07:02:38;5.80;99.90
24152;DHT22;12311;50.866;4.332;2023-12-20T07:05:04;5.70;99.90
24152;DHT22;12311;50.866;4.332;2023-12-20T07:07:30;5.60;99.90
24152;DHT22;12311;50.866;4.332;2023-12-20T07:09:55;5.50;99.90
24152;DHT22;12311;50.866;4.332;2023-12-20T07:12:21;5.60;99.90
24152;DHT22;12311;50.866;4.332;2023-12-20T07:14:47;5.50;99.90
24152;DHT22;12311;50.866;4.332;2023-12-20T07:17:13;5.60;99.90
24152;DHT22;12311;50.866;4.332;2023-12-20T07:19:40;5.60;99.90
24152;DHT22;12311;50.866;4.332;2023-12-20T07:22:07;5.60;99.90
24152;DHT22;12311;50.866;4.332;2023-12-20T07:24:33;5.40;99.90
24152;DHT22;12311;50.866;4.332;2023-12-20T07:27:00;5.40;99.90
24152;DHT22;12311;50.866;4.332;2023-12-20T07:29:25;5.40;99.90
24152;DHT22;12311;50.866;4.332;2023-12-20T07:31:52;5.40;99.90
24152;DHT22;12311;50.866;4.332;2023-12-20T07:34:21;5.50;99.90
24152;DHT22;12311;50.866;4.332;2023-12-20T07:36:47;5.40;99.90
24152;DHT22;12311;50.866;4.332;2023-12-20T07:39:14;5.40;99.90
24152;DHT22;12311;50.866;4.332;2023-12-20T07:41:39;5.40;99.90
24152;DHT22;12311;50.866;4.332;2023-12-20T07:44:06;5.40;99.90
24152;DHT22;12311;50.866;4.332;2023-12-20T07:46:32;5.30;99.90
24152;DHT22;12311;50.866;4.332;2023-12-20T07:48:57;5.30;99.90
24152;DHT22;12311;50.866;4.332;2023-12-20T07:51:23;5.30;99.90
24152;DHT22;12311;50.866;4.332;2023-12-20T07:53:49;5.40;99.90
24152;DHT22;12311;50.866;4.332;2023-12-20T07:56:19;5.40;99.90
24152;DHT22;12311;50.866;4.332;2023-12-20T07:58:45;5.40;99.90
24152;DHT22;12311;50.866;4.332;2023-12-20T08:01:11;5.40;99.90
24152;DHT22;12311;50.866;4.332;2023-12-20T08:03:37;5.40;99.90
24152;DHT22;12311;50.866;4.332;2023-12-20T08:06:03;5.40;99.90
24152;DHT22;12311;50.866;4.332;2023-12-20T08:08:29;5.40;99.90
24152;DHT22;12311;50.866;4.332;2023-12-20T08:10:55;5.40;99.90
24152;DHT22;12311;50.866;4.332;2023-12-20T08:13:23;5.40;99.90
24152;DHT22;12311;50.866;4.332;2023-12-20T08:15:51;5.40;99.90
24152;DHT22;12311;50.866;4.332;2023-12-20T08:18:17;5.50;99.90
24152;DHT22;12311;50.866;4.332;2023-12-20T08:20:43;5.50;99.90
24152;DHT22;12311;50.866;4.332;2023-12-20T08:23:09;5.50;99.90
24152;DHT22;12311;50.866;4.332;2023-12-20T08:25:34;5.50;99.90
24152;DHT22;12311;50.866;4.332;2023-12-20T08:28:02;5.60;99.90
24152;DHT22;12311;50.866;4.332;2023-12-20T08:30:28;5.50;99.90
24152;DHT22;12311;50.866;4.332;2023-12-20T08:32:55;5.60;99.90
24152;DHT22;12311;50.866;4.332;2023-12-20T08:35:20;5.60;99.90
24152;DHT22;12311;50.866;4.332;2023-12-20T08:37:46;5.70;99.90
24152;DHT22;12311;50.866;4.332;2023-12-20T08:40:12;5.80;99.90
24152;DHT22;12311;50.866;4.332;2023-12-20T08:42:37;5.80;99.90
24152;DHT22;12311;50.866;4.332;2023-12-20T08:45:03;5.70;99.90
24152;DHT22;12311;50.866;4.332;2023-12-20T08:47:30;5.70;99.90
24152;DHT22;12311;50.866;4.332;2023-12-20T08:49:55;5.60;99.90
24152;DHT22;12311;50.866;4.332;2023-12-20T08:52:23;5.70;99.90
24152;DHT22;12311;50.866;4.332;2023-12-20T08:54:50;5.60;99.90
24152;DHT22;12311;50.866;4.332;2023-12-20T08:57:22;5.60;99.90
24152;DHT22;12311;50.866;4.332;2023-12-20T08:59:51;5.70;99.90
24152;DHT22;12311;50.866;4.332;2023-12-20T09:02:17;5.60;99.90
24152;DHT22;12311;50.866;4.332;2023-12-20T09:04:43;5.60;99.90
24152;DHT22;12311;50.866;4.332;2023-12-20T09:07:25;5.70;99.90
24152;DHT22;12311;50.866;4.332;2023-12-20T09:09:52;5.80;99.90
24152;DHT22;12311;50.866;4.332;2023-12-20T09:12:18;5.80;99.90
24152;DHT22;12311;50.866;4.332;2023-12-20T09:14:45;5.90;99.90
24152;DHT22;12311;50.866;4.332;2023-12-20T09:17:11;5.90;99.90
24152;DHT22;12311;50.866;4.332;2023-12-20T09:19:38;6.10;99.90
24152;DHT22;12311;50.866;4.332;2023-12-20T09:22:04;6.00;99.90
24152;DHT22;12311;50.866;4.332;2023-12-20T09:24:30;6.00;99.90
24152;DHT22;12311;50.866;4.332;2023-12-20T09:26:56;6.00;99.90
24152;DHT22;12311;50.866;4.332;2023-12-20T09:29:22;6.10;99.90
24152;DHT22;12311;50.866;4.332;2023-12-20T09:31:48;6.20;99.90
24152;DHT22;12311;50.866;4.332;2023-12-20T09:34:15;6.20;99.90
24152;DHT22;12311;50.866;4.332;2023-12-20T09:36:41;6.30;99.90
24152;DHT22;12311;50.866;4.332;2023-12-20T09:39:15;6.30;99.90
24152;DHT22;12311;50.866;4.332;2023-12-20T09:41:45;6.50;99.90
24152;DHT22;12311;50.866;4.332;2023-12-20T09:44:15;6.60;99.90
24152;DHT22;12311;50.866;4.332;2023-12-20T09:46:44;6.70;99.90
24152;DHT22;12311;50.866;4.332;2023-12-20T09:49:11;6.70;99.90
24152;DHT22;12311;50.866;4.332;2023-12-20T09:51:38;6.80;99.90
24152;DHT22;12311;50.866;4.332;2023-12-20T09:54:05;6.80;99.90
24152;DHT22;12311;50.866;4.332;2023-12-20T09:56:31;7.00;99.90
24152;DHT22;12311;50.866;4.332;2023-12-20T09:58:59;7.10;99.90
24152;DHT22;12311;50.866;4.332;2023-12-20T10:01:25;7.30;99.90
24152;DHT22;12311;50.866;4.332;2023-12-20T10:03:51;7.20;99.90
24152;DHT22;12311;50.866;4.332;2023-12-20T10:06:19;7.30;99.90
24152;DHT22;12311;50.866;4.332;2023-12-20T10:08:45;7.20;99.90
24152;DHT22;12311;50.866;4.332;2023-12-20T10:11:11;7.20;99.90
24152;DHT22;12311;50.866;4.332;2023-12-20T10:13:41;7.30;99.90
24152;DHT22;12311;50.866;4.332;2023-12-20T10:16:07;7.30;99.90
24152;DHT22;12311;50.866;4.332;2023-12-20T10:18:33;7.50;99.90
24152;DHT22;12311;50.866;4.332;2023-12-20T10:21:00;7.50;99.90
24152;DHT22;12311;50.866;4.332;2023-12-20T10:23:26;7.60;99.90
24152;DHT22;12311;50.866;4.332;2023-12-20T10:26:01;7.70;99.90
24152;DHT22;12311;50.866;4.332;2023-12-20T10:28:28;7.80;99.90
24152;DHT22;12311;50.866;4.332;2023-12-20T10:30:58;7.90;99.90
24152;DHT22;12311;50.866;4.332;2023-12-20T10:33:27;7.90;99.90
24152;DHT22;12311;50.866;4.332;2023-12-20T10:35:57;8.00;99.90
24152;DHT22;12311;50.866;4.332;2023-12-20T10:38:23;8.10;99.90
24152;DHT22;12311;50.866;4.332;2023-12-20T10:40:53;8.20;99.90
24152;DHT22;12311;50.866;4.332;2023-12-20T10:43:21;8.10;99.90
24152;DHT22;12311;50.866;4.332;2023-12-20T10:45:47;8.10;99.90
24152;DHT22;12311;50.866;4.332;2023-12-20T10:48:13;8.20;99.90
24152;DHT22;12311;50.866;4.332;2023-12-20T10:50:41;8.20;99.90
24152;DHT22;12311;50.866;4.332;2023-12-20T10:53:07;8.20;99.90
24152;DHT22;12311;50.866;4.332;2023-12-20T10:55:33;8.20;99.90
24152;DHT22;12311;50.866;4.332;2023-12-20T10:58:07;8.30;99.90
24152;DHT22;12311;50.866;4.332;2023-12-20T11:00:39;8.40;99.90
24152;DHT22;12311;50.866;4.332;2023-12-20T11:03:07;8.30;99.90
24152;DHT22;12311;50.866;4.332;2023-12-20T11:05:58;8.30;99.90
24152;DHT22;12311;50.866;4.332;2023-12-20T11:08:27;8.40;99.90
24152;DHT22;12311;50.866;4.332;2023-12-20T11:11:02;8.50;99.90
24152;DHT22;12311;50.866;4.332;2023-12-20T11:13:57;8.50;99.90
24152;DHT22;12311;50.866;4.332;2023-12-20T11:16:25;8.50;99.90
24152;DHT22;12311;50.866;4.332;2023-12-20T11:18:51;8.50;99.90
24152;DHT22;12311;50.866;4.332;2023-12-20T11:21:17;8.50;99.90
24152;DHT22;12311;50.866;4.332;2023-12-20T11:23:43;8.50;99.90
24152;DHT22;12311;50.866;4.332;2023-12-20T11:26:08;8.50;99.90
24152;DHT22;12311;50.866;4.332;2023-12-20T11:28:34;8.50;99.90
24152;DHT22;12311;50.866;4.332;2023-12-20T11:31:03;8.40;99.90
24152;DHT22;12311;50.866;4.332;2023-12-20T11:33:37;8.30;99.90
24152;DHT22;12311;50.866;4.332;2023-12-20T11:36:13;8.30;99.90
24152;DHT22;12311;50.866;4.332;2023-12-20T11:38:47;8.30;99.90
24152;DHT22;12311;50.866;4.332;2023-12-20T11:41:15;8.30;99.90
24152;DHT22;12311;50.866;4.332;2023-12-20T11:43:42;8.20;99.90
24152;DHT22;12311;50.866;4.332;2023-12-20T11:46:08;8.30;99.90
24152;DHT22;12311;50.866;4.332;2023-12-20T11:48:36;8.20;99.90
24152;DHT22;12311;50.866;4.332;2023-12-20T11:51:02;8.20;99.90
24152;DHT22;12311;50.866;4.332;2023-12-20T11:53:29;8.30;99.90
24152;DHT22;12311;50.866;4.332;2023-12-20T11:55:57;8.40;99.90
24152;DHT22;12311;50.866;4.332;2023-12-20T11:58:23;8.40;99.90
24152;DHT22;12311;50.866;4.332;2023-12-20T12:00:50;8.40;99.90
24152;DHT22;12311;50.866;4.332;2023-12-20T12:03:16;8.50;99.90
24152;DHT22;12311;50.866;4.332;2023-12-20T12:05:43;8.60;99.90
24152;DHT22;12311;50.866;4.332;2023-12-20T12:08:08;8.70;99.90
24152;DHT22;12311;50.866;4.332;2023-12-20T12:10:34;8.60;99.90
24152;DHT22;12311;50.866;4.332;2023-12-20T12:13:00;8.60;99.90
24152;DHT22;12311;50.866;4.332;2023-12-20T12:15:26;8.60;99.90
24152;DHT22;12311;50.866;4.332;2023-12-20T12:17:56;8.70;99.90
24152;DHT22;12311;50.866;4.332;2023-12-20T12:20:22;8.80;99.90
24152;DHT22;12311;50.866;4.332;2023-12-20T12:23:02;8.80;99.90
24152;DHT22;12311;50.866;4.332;2023-12-20T12:25:29;8.90;99.90
24152;DHT22;12311;50.866;4.332;2023-12-20T12:27:57;9.00;99.90
24152;DHT22;12311;50.866;4.332;2023-12-20T12:30:23;9.00;99.90
24152;DHT22;12311;50.866;4.332;2023-12-20T12:32:50;9.00;99.90
24152;DHT22;12311;50.866;4.332;2023-12-20T12:35:16;9.00;99.90
24152;DHT22;12311;50.866;4.332;2023-12-20T12:37:41;9.00;99.90
24152;DHT22;12311;50.866;4.332;2023-12-20T12:40:10;9.00;99.90
24152;DHT22;12311;50.866;4.332;2023-12-20T12:42:37;9.00;99.90
24152;DHT22;12311;50.866;4.332;2023-12-20T12:45:04;8.90;99.90
24152;DHT22;12311;50.866;4.332;2023-12-20T12:47:30;8.90;99.90
24152;DHT22;12311;50.866;4.332;2023-12-20T12:49:56;8.90;99.90
24152;DHT22;12311;50.866;4.332;2023-12-20T12:52:21;8.90;99.90
24152;DHT22;12311;50.866;4.332;2023-12-20T12:54:48;8.90;99.90
24152;DHT22;12311;50.866;4.332;2023-12-20T12:57:14;8.80;99.90
24152;DHT22;12311;50.866;4.332;2023-12-20T12:59:42;8.90;99.90
24152;DHT22;12311;50.866;4.332;2023-12-20T13:02:07;8.90;99.90
24152;DHT22;12311;50.866;4.332;2023-12-20T13:04:33;8.90;99.90
24152;DHT22;12311;50.866;4.332;2023-12-20T13:06:59;8.90;99.90
24152;DHT22;12311;50.866;4.332;2023-12-20T13:09:25;8.80;99.90
24152;DHT22;12311;50.866;4.332;2023-12-20T13:11:51;8.80;99.90
24152;DHT22;12311;50.866;4.332;2023-12-20T13:14:16;8.90;99.90
24152;DHT22;12311;50.866;4.332;2023-12-20T13:16:42;8.90;99.90
24152;DHT22;12311;50.866;4.332;2023-12-20T13:19:08;8.90;99.90
24152;DHT22;12311;50.866;4.332;2023-12-20T13:21:35;8.90;99.90
24152;DHT22;12311;50.866;4.332;2023-12-20T13:24:01;8.90;99.90
24152;DHT22;12311;50.866;4.332;2023-12-20T13:26:26;9.00;99.90
24152;DHT22;12311;50.866;4.332;2023-12-20T13:28:53;9.10;99.90
24152;DHT22;12311;50.866;4.332;2023-12-20T13:31:19;9.20;99.90
24152;DHT22;12311;50.866;4.332;2023-12-20T13:33:45;9.30;99.90
24152;DHT22;12311;50.866;4.332;2023-12-20T13:36:11;9.40;99.90
24152;DHT22;12311;50.866;4.332;2023-12-20T13:38:37;9.40;99.90
24152;DHT22;12311;50.866;4.332;2023-12-20T13:41:03;9.40;99.90
24152;DHT22;12311;50.866;4.332;2023-12-20T13:43:30;9.50;99.90
24152;DHT22;12311;50.866;4.332;2023-12-20T13:45:58;9.50;99.90
24152;DHT22;12311;50.866;4.332;2023-12-20T13:48:24;9.50;99.90
24152;DHT22;12311;50.866;4.332;2023-12-20T13:50:49;9.40;99.90
24152;DHT22;12311;50.866;4.332;2023-12-20T13:53:15;9.40;99.90
24152;DHT22;12311;50.866;4.332;2023-12-20T13:55:41;9.30;99.90
24152;DHT22;12311;50.866;4.332;2023-12-20T13:58:07;9.40;99.90
24152;DHT22;12311;50.866;4.332;2023-12-20T14:00:32;9.50;99.90
24152;DHT22;12311;50.866;4.332;2023-12-20T14:02:58;9.50;99.90
24152;DHT22;12311;50.866;4.332;2023-12-20T14:05:24;9.60;99.90
24152;DHT22;12311;50.866;4.332;2023-12-20T14:07:50;9.60;99.90
24152;DHT22;12311;50.866;4.332;2023-12-20T14:10:16;9.60;99.90
24152;DHT22;12311;50.866;4.332;2023-12-20T14:12:42;9.70;99.90
24152;DHT22;12311;50.866;4.332;2023-12-20T14:15:09;9.60;99.90
24152;DHT22;12311;50.866;4.332;2023-12-20T14:17:40;9.70;99.90
24152;DHT22;12311;50.866;4.332;2023-12-20T14:20:07;9.60;99.90
24152;DHT22;12311;50.866;4.332;2023-12-20T14:22:35;9.70;99.90
24152;DHT22;12311;50.866;4.332;2023-12-20T14:25:01;9.60;99.90
24152;DHT22;12311;50.866;4.332;2023-12-20T14:27:27;9.60;99.90
24152;DHT22;12311;50.866;4.332;2023-12-20T14:29:56;9.60;99.90
24152;DHT22;12311;50.866;4.332;2023-12-20T14:32:21;9.70;99.90
24152;DHT22;12311;50.866;4.332;2023-12-20T14:34:47;9.70;99.90
24152;DHT22;12311;50.866;4.332;2023-12-20T14:37:13;9.60;99.90
24152;DHT22;12311;50.866;4.332;2023-12-20T14:39:39;9.60;99.90
24152;DHT22;12311;50.866;4.332;2023-12-20T14:42:07;9.60;99.90
24152;DHT22;12311;50.866;4.332;2023-12-20T14:44:37;9.60;99.90
24152;DHT22;12311;50.866;4.332;2023-12-20T14:47:03;9.60;99.90
24152;DHT22;12311;50.866;4.332;2023-12-20T14:49:30;9.70;99.90
24152;DHT22;12311;50.866;4.332;2023-12-20T14:51:55;9.80;99.90
24152;DHT22;12311;50.866;4.332;2023-12-20T14:54:21;9.80;99.90
24152;DHT22;12311;50.866;4.332;2023-12-20T14:56:47;9.70;99.90
24152;DHT22;12311;50.866;4.332;2023-12-20T14:59:14;9.70;99.90
24152;DHT22;12311;50.866;4.332;2023-12-20T15:01:40;9.60;99.90
24152;DHT22;12311;50.866;4.332;2023-12-20T15:04:06;9.70;99.90
24152;DHT22;12311;50.866;4.332;2023-12-20T15:06:32;9.70;99.90
24152;DHT22;12311;50.866;4.332;2023-12-20T15:08:59;9.80;99.90
24152;DHT22;12311;50.866;4.332;2023-12-20T15:11:26;9.80;99.90
24152;DHT22;12311;50.866;4.332;2023-12-20T15:13:52;9.80;99.90
24152;DHT22;12311;50.866;4.332;2023-12-20T15:16:24;9.90;99.90
24152;DHT22;12311;50.866;4.332;2023-12-20T15:18:51;9.80;99.90
24152;DHT22;12311;50.866;4.332;2023-12-20T15:21:19;9.80;99.90
24152;DHT22;12311;50.866;4.332;2023-12-20T15:23:45;9.60;99.90
24152;DHT22;12311;50.866;4.332;2023-12-20T15:26:20;9.60;99.90
24152;DHT22;12311;50.866;4.332;2023-12-20T15:28:45;9.60;99.90
24152;DHT22;12311;50.866;4.332;2023-12-20T15:31:11;9.60;99.90
24152;DHT22;12311;50.866;4.332;2023-12-20T15:33:39;9.60;99.90
24152;DHT22;12311;50.866;4.332;2023-12-20T15:36:05;9.70;99.90
24152;DHT22;12311;50.866;4.332;2023-12-20T15:38:30;9.60;99.90
24152;DHT22;12311;50.866;4.332;2023-12-20T15:40:56;9.60;99.90